NCAR-RAP Real-Time Weather Data

Output produced by METARs form (14 October 2019  23:03 UTC)
found at http://weather.rap.ucar.edu/surface/
 
KIAD 142252Z 21004KT 10SM CLR 19/04 A2999 RMK AO2 SLP155 T01940039
KIAD 142152Z 21008KT 10SM CLR 23/04 A2997 RMK AO2 SLP148 T02280039
KIAD 142052Z 25008KT 10SM CLR 24/04 A2996 RMK AO2 SLP145 T02390039 56012
KIAD 141952Z 22004KT 10SM CLR 24/03 A2997 RMK AO2 SLP147 T02390028
KIAD 141852Z VRB06KT 10SM CLR 24/03 A2997 RMK AO2 SLP147 T02440028
KIAD 141752Z 24007KT 10SM CLR 23/04 A3000 RMK AO2 SLP157 T02280044 10244 20044 58019
KIAD 141652Z 27008G15KT 10SM CLR 23/02 A3003 RMK AO2 SLP167 T02280017
KIAD 141552Z 29009KT 10SM CLR 22/05 A3005 RMK AO2 SLP173 T02170050
KIAD 141452Z 00000KT 10SM CLR 18/08 A3006 RMK AO2 SLP177 T01830078 50008
KIAD 141352Z 00000KT 10SM FEW050 15/09 A3006 RMK AO2 SLP179 T01500089
KIAD 141252Z 00000KT 10SM FEW050 11/08 A3005 RMK AO2 SLP175 T01060078
KIAD 141152Z 00000KT 9SM FEW040 04/04 A3003 RMK AO2 SLP170 T00440039 10089 20039 53019
KIAD 141053Z 00000KT 8SM FEW040 04/03 A3001 RMK AO2 T00440033
KIAD 141052Z 00000KT 10SM CLR 04/03 A3001 RMK AO2 SLP162 T00440033
KIAD 140952Z 32003KT 10SM CLR 07/05 A2999 RMK AO2 SLP155 T00670050
KIAD 140852Z 00000KT 10SM CLR 07/05 A2998 RMK AO2 SLP150 T00670050 55008
KIAD 140752Z 00000KT 10SM FEW250 07/06 A2997 RMK AO2 SLP147 T00720056
KIAD 140652Z 31004KT 10SM FEW250 07/06 A2998 RMK AO2 SLP153 T00720056
KIAD 140552Z 32003KT 10SM SCT250 08/06 A3000 RMK AO2 SLP158 T00830061 10150 20078 58004
KIAD 140452Z 00000KT 10SM SCT250 09/07 A3001 RMK AO2 SLP160 T00940072 401830089
KIAD 140352Z 00000KT 10SM FEW024 SCT080 SCT250 09/07 A3001 RMK AO2 SLP162 T00940072
KIAD 140252Z 00000KT 10SM SCT023 BKN070 BKN250 13/09 A3001 RMK AO2 SLP162 T01330089 58001 $
KIAD 140152Z 11003KT 10SM OVC024 14/09 A3001 RMK AO2 SLP161 T01440094 $
KIAD 140052Z 13004KT 10SM OVC026 14/09 A3002 RMK AO2 SLP163 T01440089 $
KIAD 140013Z 11003KT 10SM BKN029 BKN065 14/08 A3002 RMK AO2 T01390078 $
KIAD 132352Z 12004KT 10SM SCT030 BKN065 BKN150 12/07 A3001 RMK AO2 SLP163 T01170067 10178 20117 58001 $
KIAD 132252Z 15004KT 10SM SCT028 BKN065 BKN150 15/07 A3002 RMK AO2 SLP163 T01500072 $
KIAD 132216Z 16006KT 10SM SCT031 BKN049 BKN150 16/08 A3002 RMK AO2 T01610078 $
KIAD 132152Z 16005KT 10SM BKN029 BKN150 17/08 A3002 RMK AO2 SLP163 T01670078 $
KIAD 132052Z 15007KT 10SM OVC029 17/06 A3002 RMK AO2 SLP163 T01720061 56015 $
KIAD 131952Z 18005KT 10SM OVC029 18/04 A3003 RMK AO2 SLP169 T01780039 $
KIAD 131944Z 19006KT 10SM OVC029 18/04 A3003 RMK AO2 T01780044 $
KIAD 131852Z 14005KT 10SM OVC032 17/03 A3004 RMK AO2 SLP172 T01720028 $
KIAD 131752Z VRB03KT 10SM FEW032 OVC037 18/02 A3006 RMK AO2 SLP178 T01780022 10183 20117 58021 $
KIAD 131652Z 33004KT 10SM OVC039 17/03 A3009 RMK AO2 SLP188 T01720028 $
KIAD 131552Z VRB05KT 10SM BKN040 BKN090 BKN250 16/02 A3010 RMK AO2 SLP192 T01610017 $
KIAD 131452Z 05005KT 10SM BKN049 BKN070 BKN250 14/02 A3012 RMK AO2 SLP200 T01390022 58001 $
KIAD 131407Z 04006KT 10SM BKN060 BKN075 BKN250 13/02 A3013 RMK AO2 T01280022 $
KIAD 131352Z 07007KT 10SM BKN060 BKN085 BKN250 13/02 A3014 RMK AO2 SLP204 T01280022 $
KIAD 131252Z 05006KT 10SM BKN070 BKN090 BKN250 12/03 A3012 RMK AO2 SLP199 T01220028 $
KIAD 131152Z 01006KT 10SM BKN065 BKN085 BKN120 BKN250 12/03 A3013 RMK AO2 RAB02E12 SLP201 P0000 60000 T01170028 10128 20106 50010 $
KIAD 131052Z 03008KT 10SM SCT041 BKN075 OVC110 11/03 A3013 RMK AO2 SLP202 T01110028
KIAD 130952Z 03006KT 10SM OVC070 11/03 A3010 RMK AO2 SLP191 T01110028
KIAD 130852Z 36006KT 10SM SCT043 BKN075 OVC100 12/03 A3010 RMK AO2 SLP191 T01170028 53007
KIAD 130752Z 36008KT 10SM BKN041 BKN090 12/03 A3008 RMK AO2 SLP184 T01170033
KIAD 130652Z 01010KT 10SM OVC038 13/03 A3008 RMK AO2 SLP186 T01280033
KIAD 130552Z 36008KT 10SM BKN042 13/03 A3008 RMK AO2 SLP185 T01280033 10178 20128 51006
KIAD 130452Z 36009KT 10SM FEW045 FEW100 13/03 A3008 RMK AO2 SLP184 T01280033 402170072
KIAD 130352Z 35007KT 10SM FEW100 13/04 A3007 RMK AO2 SLP181 T01330039
KIAD 130252Z 32006KT 10SM FEW100 14/04 A3006 RMK AO2 SLP178 T01440044 51011
KIAD 130152Z 31006KT 10SM FEW100 14/05 A3005 RMK AO2 SLP176 T01440050
KIAD 130052Z 33008KT 10SM SCT075 BKN100 17/04 A3004 RMK AO2 SLP172 T01720044
KIAD 122352Z 33006KT 10SM SCT080 18/09 A3003 RMK AO2 SLP167 T01780094 10217 20178 52016